createdAt,value
2022-12-22T00:00:51.406Z,0.00
2022-12-22T00:01:51.533Z,0.00
2022-12-22T00:02:51.514Z,0.00
2022-12-22T00:03:51.660Z,0.00
2022-12-22T00:04:51.390Z,0.00
2022-12-22T00:05:51.383Z,0.00
2022-12-22T00:06:51.423Z,0.00
2022-12-22T00:07:51.371Z,0.00
2022-12-22T00:08:51.383Z,0.00
2022-12-22T00:09:51.367Z,0.00
2022-12-22T00:10:51.382Z,0.00
2022-12-22T00:11:51.354Z,0.00
2022-12-22T00:12:51.361Z,0.00
2022-12-22T00:13:51.363Z,0.00
2022-12-22T00:14:51.344Z,0.00
2022-12-22T00:15:51.333Z,0.00
2022-12-22T00:16:51.378Z,0.00
2022-12-22T00:17:51.326Z,0.00
2022-12-22T00:18:51.333Z,0.00
2022-12-22T00:19:51.319Z,0.00
2022-12-22T00:20:51.319Z,0.00
2022-12-22T00:21:51.313Z,0.00
2022-12-22T00:22:51.392Z,0.00
2022-12-22T00:23:51.304Z,0.00
2022-12-22T00:24:51.300Z,0.00
2022-12-22T00:25:51.292Z,0.00
2022-12-22T00:26:51.291Z,0.00
2022-12-22T00:27:51.281Z,0.00
2022-12-22T00:28:51.284Z,0.00
2022-12-22T00:29:51.280Z,0.00
2022-12-22T00:30:51.321Z,0.00
2022-12-22T00:31:51.270Z,0.00
2022-12-22T00:32:51.269Z,0.00
2022-12-22T00:33:51.263Z,0.00
2022-12-22T00:34:51.260Z,0.00
2022-12-22T00:35:51.257Z,0.00
2022-12-22T00:36:51.247Z,0.00
2022-12-22T00:37:51.243Z,0.00
2022-12-22T00:38:51.272Z,0.00
2022-12-22T00:39:51.237Z,0.00
2022-12-22T00:40:51.231Z,0.00
2022-12-22T00:41:51.224Z,0.00
2022-12-22T00:42:51.235Z,0.00
2022-12-22T00:43:51.218Z,0.00
2022-12-22T00:44:51.212Z,0.00
2022-12-22T00:45:51.599Z,0.00
2022-12-22T00:46:51.207Z,0.00
2022-12-22T00:47:51.217Z,0.00
2022-12-22T00:48:51.198Z,0.00
2022-12-22T00:49:51.200Z,0.00
2022-12-22T00:50:51.200Z,0.00
2022-12-22T00:51:51.184Z,0.00
2022-12-22T00:52:51.182Z,0.00
2022-12-22T00:53:51.179Z,0.00
2022-12-22T00:54:51.195Z,0.00
2022-12-22T00:55:51.165Z,0.00
2022-12-22T00:56:51.166Z,0.00
2022-12-22T00:57:51.159Z,0.00
2022-12-22T00:58:51.160Z,0.00
2022-12-22T00:59:51.155Z,0.00
2022-12-22T01:00:51.151Z,0.00
2022-12-22T01:01:51.261Z,0.00
2022-12-22T01:02:51.274Z,0.00
2022-12-22T01:03:51.284Z,0.00
2022-12-22T01:04:51.127Z,0.00
2022-12-22T01:05:51.124Z,0.00
2022-12-22T01:06:51.120Z,0.00
2022-12-22T01:07:51.114Z,0.00
2022-12-22T01:08:51.111Z,0.00
2022-12-22T01:09:51.131Z,0.00
2022-12-22T01:10:51.144Z,0.00
2022-12-22T01:11:51.104Z,0.00
2022-12-22T01:12:51.092Z,0.00
2022-12-22T01:13:51.109Z,0.00
2022-12-22T01:14:51.087Z,0.00
2022-12-22T01:15:51.121Z,0.00
2022-12-22T01:16:51.072Z,0.00
2022-12-22T01:17:51.078Z,0.00
2022-12-22T01:18:51.067Z,0.00
2022-12-22T01:19:51.065Z,0.00
2022-12-22T01:20:51.059Z,0.00
2022-12-22T01:21:51.056Z,0.00
2022-12-22T01:22:51.049Z,0.00
2022-12-22T01:23:51.107Z,0.00
2022-12-22T01:24:51.042Z,0.00
2022-12-22T01:25:51.048Z,0.00
2022-12-22T01:26:51.050Z,0.00
2022-12-22T01:27:51.029Z,0.00
2022-12-22T01:28:51.024Z,0.00
2022-12-22T01:29:51.073Z,0.00
2022-12-22T01:30:51.090Z,0.00
2022-12-22T01:31:51.014Z,0.00
2022-12-22T01:32:51.014Z,0.00
2022-12-22T01:33:51.005Z,0.00
2022-12-22T01:34:51.000Z,0.00
2022-12-22T01:35:51.002Z,0.00
2022-12-22T01:36:50.990Z,0.00
2022-12-22T01:37:50.989Z,0.00
2022-12-22T01:38:50.984Z,0.00
2022-12-22T01:39:50.981Z,0.00
2022-12-22T01:40:50.974Z,0.00
2022-12-22T01:41:50.989Z,0.00
2022-12-22T01:42:50.989Z,0.00
2022-12-22T01:43:50.961Z,0.00
2022-12-22T01:44:50.956Z,0.00
2022-12-22T01:45:51.054Z,0.00
2022-12-22T01:46:51.125Z,0.00
2022-12-22T01:47:50.951Z,0.00
2022-12-22T01:48:50.956Z,0.00
2022-12-22T01:49:50.937Z,0.00
2022-12-22T01:50:50.940Z,0.00
2022-12-22T01:51:50.956Z,0.00
2022-12-22T01:52:50.941Z,0.00
2022-12-22T01:53:50.937Z,0.00
2022-12-22T01:54:50.917Z,0.00
2022-12-22T01:55:50.911Z,0.00
2022-12-22T01:56:50.906Z,0.00
2022-12-22T01:57:50.910Z,0.00
2022-12-22T01:58:50.928Z,0.00
2022-12-22T01:59:50.929Z,0.00
2022-12-22T02:00:50.889Z,0.00
2022-12-22T02:01:50.990Z,0.00
2022-12-22T02:02:51.077Z,0.00
2022-12-22T02:03:50.909Z,0.00
2022-12-22T02:04:50.883Z,0.00
2022-12-22T02:05:50.869Z,0.00
2022-12-22T02:06:56.199Z,0.00
2022-12-22T02:07:50.861Z,0.00
2022-12-22T02:08:50.858Z,0.00
2022-12-22T02:09:50.856Z,0.00
2022-12-22T02:10:50.851Z,0.00
2022-12-22T02:11:50.855Z,0.00
2022-12-22T02:12:50.848Z,0.00
2022-12-22T02:13:50.837Z,0.00
2022-12-22T02:14:50.856Z,0.00
2022-12-22T02:15:50.840Z,0.00
2022-12-22T02:16:50.827Z,0.00
2022-12-22T02:17:50.830Z,0.00
2022-12-22T02:18:50.819Z,0.00
2022-12-22T02:19:50.811Z,0.00
2022-12-22T02:20:50.808Z,0.00
2022-12-22T02:21:50.808Z,0.00
2022-12-22T02:22:50.797Z,0.00
2022-12-22T02:23:50.799Z,0.00
2022-12-22T02:24:50.789Z,0.00
2022-12-22T02:25:50.786Z,0.00
2022-12-22T02:26:50.786Z,0.00
2022-12-22T02:27:50.780Z,0.00
2022-12-22T02:28:50.777Z,0.00
2022-12-22T02:29:50.780Z,0.00
2022-12-22T02:30:50.868Z,0.00
2022-12-22T02:31:50.801Z,0.00
2022-12-22T02:32:50.759Z,0.00
2022-12-22T02:33:50.752Z,0.00
2022-12-22T02:34:50.746Z,0.00
2022-12-22T02:35:50.746Z,0.00
2022-12-22T02:36:50.739Z,0.00
2022-12-22T02:37:50.737Z,0.00
2022-12-22T02:38:50.753Z,0.00
2022-12-22T02:39:50.729Z,0.00
2022-12-22T02:40:50.725Z,0.00
2022-12-22T02:41:50.720Z,0.00
2022-12-22T02:42:50.716Z,0.00
2022-12-22T02:43:50.715Z,0.00
2022-12-22T02:44:50.709Z,0.00
2022-12-22T02:45:50.706Z,0.00
2022-12-22T02:46:50.741Z,0.00
2022-12-22T02:47:50.693Z,0.00
2022-12-22T02:48:50.688Z,0.00
2022-12-22T02:49:50.688Z,0.00
2022-12-22T02:50:50.694Z,0.00
2022-12-22T02:51:50.679Z,0.00
2022-12-22T02:52:50.680Z,0.00
2022-12-22T02:53:50.668Z,0.00
2022-12-22T02:54:50.666Z,0.00
2022-12-22T02:55:50.668Z,0.00
2022-12-22T02:56:50.661Z,0.00
2022-12-22T02:57:50.651Z,0.00
2022-12-22T02:58:50.645Z,0.00
2022-12-22T02:59:50.649Z,0.00
2022-12-22T03:00:50.642Z,0.00
2022-12-22T03:01:50.719Z,0.00
2022-12-22T03:02:50.921Z,0.00
2022-12-22T03:03:50.788Z,0.00
2022-12-22T03:04:50.622Z,0.00
2022-12-22T03:05:50.626Z,0.00
2022-12-22T03:06:50.625Z,0.00
2022-12-22T03:07:50.635Z,0.00
2022-12-22T03:08:50.614Z,0.00
2022-12-22T03:09:50.607Z,0.00
2022-12-22T03:10:50.603Z,0.00
2022-12-22T03:11:50.598Z,0.00
2022-12-22T03:12:50.599Z,0.00
2022-12-22T03:13:50.589Z,0.00
2022-12-22T03:14:50.584Z,0.00
2022-12-22T03:15:50.637Z,0.00
2022-12-22T03:16:50.574Z,0.00
2022-12-22T03:17:50.575Z,0.00
2022-12-22T03:18:50.586Z,0.00
2022-12-22T03:19:50.571Z,0.00
2022-12-22T03:20:50.558Z,0.00
2022-12-22T03:21:50.558Z,0.00
2022-12-22T03:22:50.550Z,0.00
2022-12-22T03:23:50.542Z,0.00
2022-12-22T03:24:50.542Z,0.00
2022-12-22T03:25:50.534Z,0.00
2022-12-22T03:26:50.537Z,0.00
2022-12-22T03:27:50.525Z,0.00
2022-12-22T03:28:50.524Z,0.00
2022-12-22T03:29:50.525Z,0.00
2022-12-22T03:30:50.516Z,0.00
2022-12-22T03:31:50.584Z,0.00
2022-12-22T03:32:50.506Z,0.00
2022-12-22T03:33:50.504Z,0.00
2022-12-22T03:34:50.524Z,0.00
2022-12-22T03:35:50.496Z,0.00
2022-12-22T03:36:50.492Z,0.00
2022-12-22T03:37:50.484Z,0.00
2022-12-22T03:38:50.494Z,0.00
2022-12-22T03:39:50.487Z,0.00
2022-12-22T03:40:50.497Z,0.00
2022-12-22T03:41:50.479Z,0.00
2022-12-22T03:42:50.467Z,0.00
2022-12-22T03:43:50.461Z,0.00
2022-12-22T03:44:50.464Z,0.00
2022-12-22T03:45:50.458Z,0.00
2022-12-22T03:46:50.554Z,0.00
2022-12-22T03:47:50.457Z,0.00
2022-12-22T03:48:50.442Z,0.00
2022-12-22T03:49:50.439Z,0.00
2022-12-22T03:50:50.462Z,0.00
2022-12-22T03:51:50.432Z,0.00
2022-12-22T03:52:50.426Z,0.00
2022-12-22T03:53:50.423Z,0.00
2022-12-22T03:54:50.421Z,0.00
2022-12-22T03:55:50.413Z,0.00
2022-12-22T03:56:50.422Z,0.00
2022-12-22T03:57:50.416Z,0.00
2022-12-22T03:58:50.407Z,0.00
2022-12-22T03:59:50.399Z,0.00
2022-12-22T04:00:50.435Z,0.00
2022-12-22T04:01:50.600Z,0.00
2022-12-22T04:02:50.565Z,0.00
2022-12-22T04:03:50.381Z,0.00
2022-12-22T04:04:50.377Z,0.00
2022-12-22T04:05:50.372Z,0.00
2022-12-22T04:06:50.397Z,0.00
2022-12-22T04:07:50.362Z,0.00
2022-12-22T04:08:50.367Z,0.00
2022-12-22T04:09:50.355Z,0.00
2022-12-22T04:10:50.350Z,0.00
2022-12-22T04:11:50.350Z,0.00
2022-12-22T04:12:50.345Z,0.00
2022-12-22T04:13:50.340Z,0.00
2022-12-22T04:14:50.335Z,0.00
2022-12-22T04:15:50.329Z,0.00
2022-12-22T04:16:50.363Z,0.00
2022-12-22T04:17:50.327Z,0.00
2022-12-22T04:18:50.332Z,0.00
2022-12-22T04:19:50.312Z,0.00
2022-12-22T04:20:50.309Z,0.00
2022-12-22T04:21:50.303Z,0.00
2022-12-22T04:22:50.322Z,0.00
2022-12-22T04:23:50.297Z,0.00
2022-12-22T04:24:50.291Z,0.00
2022-12-22T04:25:50.292Z,0.00
2022-12-22T04:26:50.299Z,0.00
2022-12-22T04:27:50.278Z,0.00
2022-12-22T04:28:50.318Z,0.00
2022-12-22T04:29:50.276Z,0.00
2022-12-22T04:30:50.268Z,0.00
2022-12-22T04:31:50.377Z,0.00
2022-12-22T04:32:50.264Z,0.00
2022-12-22T04:33:50.260Z,0.00
2022-12-22T04:34:50.252Z,0.00
2022-12-22T04:35:50.249Z,0.00
2022-12-22T04:36:50.244Z,0.00
2022-12-22T04:37:50.295Z,0.00
2022-12-22T04:38:50.274Z,0.00
2022-12-22T04:39:50.247Z,0.00
2022-12-22T04:40:50.228Z,0.00
2022-12-22T04:41:50.225Z,0.00
2022-12-22T04:42:50.219Z,0.00
2022-12-22T04:43:50.214Z,0.00
2022-12-22T04:44:50.211Z,0.00
2022-12-22T04:45:50.264Z,0.00
2022-12-22T04:46:50.203Z,0.00
2022-12-22T04:47:50.203Z,0.00
2022-12-22T04:48:53.261Z,0.00
2022-12-22T04:49:50.190Z,0.00
2022-12-22T04:50:50.186Z,0.00
2022-12-22T04:51:50.180Z,0.00
2022-12-22T04:52:50.181Z,0.00
2022-12-22T04:53:50.181Z,0.00
2022-12-22T04:54:50.221Z,0.00
2022-12-22T04:55:50.166Z,0.00
2022-12-22T04:56:50.163Z,0.00
2022-12-22T04:57:50.158Z,0.00
2022-12-22T04:58:50.162Z,0.00
2022-12-22T04:59:50.152Z,0.00
2022-12-22T05:00:50.216Z,0.00
2022-12-22T05:01:50.209Z,0.00
2022-12-22T05:02:50.290Z,0.00
2022-12-22T05:03:50.222Z,0.00
2022-12-22T05:04:50.135Z,0.00
2022-12-22T05:05:50.126Z,0.00
2022-12-22T05:06:50.134Z,0.00
2022-12-22T05:07:50.118Z,0.00
2022-12-22T05:08:50.116Z,0.00
2022-12-22T05:09:50.111Z,0.00
2022-12-22T05:10:50.131Z,0.00
2022-12-22T05:11:50.099Z,0.00
2022-12-22T05:12:50.101Z,0.00
2022-12-22T05:13:50.097Z,0.00
2022-12-22T05:14:50.090Z,0.00
2022-12-22T05:15:50.082Z,0.00
2022-12-22T05:16:50.113Z,0.00
2022-12-22T05:17:50.089Z,0.00
2022-12-22T05:18:50.079Z,0.00
2022-12-22T05:19:50.076Z,0.00
2022-12-22T05:20:50.072Z,0.00
2022-12-22T05:21:50.060Z,0.00
2022-12-22T05:22:50.076Z,0.00
2022-12-22T05:23:50.110Z,0.00
2022-12-22T05:24:50.051Z,0.00
2022-12-22T05:25:50.043Z,0.00
2022-12-22T05:26:50.063Z,0.00
2022-12-22T05:27:50.055Z,0.00
2022-12-22T05:28:50.035Z,0.00
2022-12-22T05:29:50.036Z,0.00
2022-12-22T05:30:50.084Z,0.00
2022-12-22T05:31:50.030Z,0.00
2022-12-22T05:32:50.017Z,0.00
2022-12-22T05:33:50.026Z,0.00
2022-12-22T05:34:50.042Z,0.00
2022-12-22T05:35:50.006Z,0.00
2022-12-22T05:36:50.001Z,0.00
2022-12-22T05:37:50.004Z,0.00
2022-12-22T05:38:49.997Z,0.00
2022-12-22T05:39:49.990Z,0.00
2022-12-22T05:40:49.991Z,0.00
2022-12-22T05:41:49.996Z,0.00
2022-12-22T05:42:50.002Z,0.00
2022-12-22T05:43:49.971Z,0.00
2022-12-22T05:44:49.969Z,0.00
2022-12-22T05:45:50.041Z,0.00
2022-12-22T05:46:49.962Z,0.00
2022-12-22T05:47:49.963Z,0.00
2022-12-22T05:48:49.954Z,0.00
2022-12-22T05:49:49.949Z,0.00
2022-12-22T05:50:49.944Z,0.00
2022-12-22T05:51:49.940Z,0.00
2022-12-22T05:52:49.938Z,0.00
2022-12-22T05:53:49.956Z,0.00
2022-12-22T05:54:49.945Z,0.00
2022-12-22T05:55:49.923Z,0.00
2022-12-22T05:56:49.920Z,0.00
2022-12-22T05:57:49.916Z,0.00
2022-12-22T05:58:49.940Z,0.00
2022-12-22T05:59:49.917Z,0.00
2022-12-22T06:00:49.903Z,0.00
2022-12-22T06:01:49.921Z,0.00
2022-12-22T06:02:50.072Z,0.00
2022-12-22T06:03:53.361Z,0.00
2022-12-22T06:04:49.890Z,0.00
2022-12-22T06:05:49.888Z,0.00
2022-12-22T06:06:49.889Z,0.00
2022-12-22T06:07:49.881Z,0.00
2022-12-22T06:08:49.897Z,0.00
2022-12-22T06:09:49.868Z,0.00
2022-12-22T06:10:49.872Z,0.00
2022-12-22T06:11:49.861Z,0.00
2022-12-22T06:12:49.871Z,0.00
2022-12-22T06:13:49.858Z,0.00
2022-12-22T06:14:49.879Z,0.00
2022-12-22T06:15:49.965Z,0.00
2022-12-22T06:16:49.841Z,0.00
2022-12-22T06:17:49.845Z,0.00
2022-12-22T06:18:49.844Z,0.00
2022-12-22T06:19:49.837Z,0.00
2022-12-22T06:20:49.834Z,0.00
2022-12-22T06:21:49.825Z,0.00
2022-12-22T06:22:49.822Z,0.00
2022-12-22T06:23:49.815Z,0.00
2022-12-22T06:24:49.821Z,0.00
2022-12-22T06:25:49.826Z,0.00
2022-12-22T06:26:49.803Z,0.00
2022-12-22T06:27:49.809Z,0.00
2022-12-22T06:28:49.796Z,0.00
2022-12-22T06:29:49.792Z,0.00
2022-12-22T06:30:49.841Z,0.00
2022-12-22T06:31:49.844Z,0.00
2022-12-22T06:32:49.778Z,0.00
2022-12-22T06:33:49.774Z,0.00
2022-12-22T06:34:49.771Z,0.00
2022-12-22T06:35:57.404Z,0.00
2022-12-22T06:36:49.765Z,0.00
2022-12-22T06:37:49.756Z,0.00
2022-12-22T06:38:49.763Z,0.00
2022-12-22T06:39:49.748Z,0.00
2022-12-22T06:40:49.746Z,0.00
2022-12-22T06:41:49.743Z,0.00
2022-12-22T06:42:49.751Z,0.00
2022-12-22T06:43:49.739Z,0.00
2022-12-22T06:44:49.731Z,0.00
2022-12-22T06:45:49.743Z,0.00
2022-12-22T06:46:49.821Z,0.00
2022-12-22T06:47:49.785Z,0.00
2022-12-22T06:48:49.717Z,0.00
2022-12-22T06:49:49.751Z,0.00
2022-12-22T06:50:49.705Z,0.00
2022-12-22T06:51:49.701Z,0.00
2022-12-22T06:52:49.700Z,0.00
2022-12-22T06:53:49.696Z,0.00
2022-12-22T06:54:49.688Z,0.00
2022-12-22T06:55:49.689Z,0.00
2022-12-22T06:56:49.682Z,0.00
2022-12-22T06:57:49.687Z,0.00
2022-12-22T06:58:49.683Z,0.00
2022-12-22T06:59:55.348Z,0.00
2022-12-22T07:00:49.716Z,0.00
2022-12-22T07:01:49.827Z,0.00
2022-12-22T07:02:49.961Z,0.00
2022-12-22T07:03:49.672Z,0.00
2022-12-22T07:04:49.656Z,0.00
2022-12-22T07:05:49.648Z,0.00
2022-12-22T07:06:49.651Z,0.00
2022-12-22T07:07:49.642Z,0.00
2022-12-22T07:08:49.634Z,0.00
2022-12-22T07:09:49.631Z,0.00
2022-12-22T07:10:49.627Z,0.00
2022-12-22T07:11:49.625Z,0.00
2022-12-22T07:12:49.618Z,0.00
2022-12-22T07:13:49.614Z,0.00
2022-12-22T07:14:49.612Z,0.00
2022-12-22T07:15:55.599Z,0.00
2022-12-22T07:16:49.721Z,0.00
2022-12-22T07:17:49.602Z,0.00
2022-12-22T07:18:49.613Z,0.00
2022-12-22T07:19:49.589Z,0.00
2022-12-22T07:20:49.601Z,0.00
2022-12-22T07:21:49.579Z,4.00
2022-12-22T07:22:49.585Z,4.00
2022-12-22T07:23:49.573Z,4.00
2022-12-22T07:24:49.573Z,4.00
2022-12-22T07:25:49.589Z,4.00
2022-12-22T07:26:49.565Z,0.00
2022-12-22T07:27:49.564Z,0.00
2022-12-22T07:28:49.552Z,0.00
2022-12-22T07:29:49.554Z,0.00
2022-12-22T07:30:49.624Z,4.00
2022-12-22T07:31:49.617Z,4.00
2022-12-22T07:32:49.546Z,4.00
2022-12-22T07:33:49.541Z,4.00
2022-12-22T07:34:49.550Z,4.00
2022-12-22T07:35:49.547Z,4.00
2022-12-22T07:36:49.526Z,4.00
2022-12-22T07:37:49.545Z,8.00
2022-12-22T07:38:49.566Z,4.00
2022-12-22T07:39:49.507Z,4.00
2022-12-22T07:40:52.120Z,4.00
2022-12-22T07:41:49.533Z,4.00
2022-12-22T07:42:49.495Z,4.00
2022-12-22T07:43:49.507Z,4.00
2022-12-22T07:44:49.567Z,4.00
2022-12-22T07:45:49.499Z,4.00
2022-12-22T07:46:49.567Z,4.00
2022-12-22T07:47:49.504Z,8.00
2022-12-22T07:48:49.472Z,4.00
2022-12-22T07:49:49.476Z,4.00
2022-12-22T07:50:49.547Z,8.00
2022-12-22T07:51:49.477Z,4.00
2022-12-22T07:52:49.456Z,8.00
2022-12-22T07:53:49.455Z,8.00
2022-12-22T07:54:49.449Z,8.00
2022-12-22T07:55:49.452Z,8.00
2022-12-22T07:56:49.443Z,4.00
2022-12-22T07:57:49.438Z,8.00
2022-12-22T07:58:49.434Z,4.00
2022-12-22T07:59:49.434Z,8.00
2022-12-22T08:00:49.423Z,8.00
2022-12-22T08:01:49.524Z,4.00
2022-12-22T08:02:49.590Z,4.00
2022-12-22T08:03:49.416Z,8.00
2022-12-22T08:04:49.470Z,8.00
2022-12-22T08:05:49.405Z,8.00
2022-12-22T08:06:49.424Z,12.00
2022-12-22T08:07:49.398Z,12.00
2022-12-22T08:08:49.392Z,8.00
2022-12-22T08:09:49.392Z,12.00
2022-12-22T08:10:49.430Z,12.00
2022-12-22T08:11:49.381Z,12.00
2022-12-22T08:12:49.462Z,12.00
2022-12-22T08:13:49.386Z,12.00
2022-12-22T08:14:49.374Z,12.00
2022-12-22T08:15:49.503Z,12.00
2022-12-22T08:16:49.540Z,12.00
2022-12-22T08:17:49.359Z,12.00
2022-12-22T08:18:49.354Z,12.00
2022-12-22T08:19:49.351Z,16.00
2022-12-22T08:20:49.346Z,16.00
2022-12-22T08:21:53.034Z,20.00
2022-12-22T08:22:49.360Z,20.00
2022-12-22T08:23:49.339Z,24.00
2022-12-22T08:24:49.334Z,28.00
2022-12-22T08:25:49.332Z,32.00
2022-12-22T08:26:49.331Z,44.00
2022-12-22T08:27:49.316Z,56.00
2022-12-22T08:28:49.316Z,68.00
2022-12-22T08:29:49.311Z,44.00
2022-12-22T08:30:49.305Z,44.00
2022-12-22T08:31:49.446Z,44.00
2022-12-22T08:32:49.299Z,44.00
2022-12-22T08:33:49.294Z,48.00
2022-12-22T08:34:49.293Z,40.00
2022-12-22T08:35:49.289Z,48.00
2022-12-22T08:36:49.294Z,36.00
2022-12-22T08:37:49.277Z,28.00
2022-12-22T08:38:49.309Z,28.00
2022-12-22T08:39:49.269Z,28.00
2022-12-22T08:40:49.264Z,28.00
2022-12-22T08:41:49.261Z,32.00
2022-12-22T08:42:49.254Z,32.00
2022-12-22T08:43:49.254Z,24.00
2022-12-22T08:44:49.245Z,32.00
2022-12-22T08:45:49.243Z,36.00
2022-12-22T08:46:49.308Z,40.00
2022-12-22T08:47:49.237Z,40.00
2022-12-22T08:48:49.230Z,40.00
2022-12-22T08:49:49.228Z,48.00
2022-12-22T08:50:49.230Z,48.00
2022-12-22T08:51:49.226Z,44.00
2022-12-22T08:52:49.229Z,44.00
2022-12-22T08:54:06.201Z,52.00
2022-12-22T08:54:49.228Z,56.00
2022-12-22T08:55:49.204Z,60.00
2022-12-22T08:56:49.209Z,64.00
2022-12-22T08:57:55.665Z,60.00
2022-12-22T08:58:49.190Z,60.00
2022-12-22T08:59:49.196Z,56.00
2022-12-22T09:00:49.254Z,52.00
2022-12-22T09:01:49.300Z,44.00
2022-12-22T09:02:49.354Z,44.00
2022-12-22T09:03:49.169Z,56.00
2022-12-22T09:04:49.164Z,60.00
2022-12-22T09:05:49.159Z,68.00
2022-12-22T09:06:49.183Z,68.00
2022-12-22T09:07:49.179Z,60.00
2022-12-22T09:08:49.166Z,60.00
2022-12-22T09:09:49.146Z,68.00
2022-12-22T09:10:49.168Z,76.00
2022-12-22T09:11:49.139Z,80.00
2022-12-22T09:12:49.128Z,84.00
2022-12-22T09:13:49.129Z,108.00
2022-12-22T09:14:49.121Z,84.00
2022-12-22T09:15:49.142Z,80.00
2022-12-22T09:16:49.216Z,76.00
2022-12-22T09:17:49.109Z,72.00
2022-12-22T09:18:49.105Z,76.00
2022-12-22T09:19:49.105Z,80.00
2022-12-22T09:20:49.094Z,76.00
2022-12-22T09:21:49.097Z,76.00
2022-12-22T09:22:49.100Z,76.00
2022-12-22T09:23:49.085Z,80.00
2022-12-22T09:24:49.084Z,92.00
2022-12-22T09:25:49.074Z,68.00
2022-12-22T09:26:49.444Z,56.00
2022-12-22T09:27:49.098Z,56.00
2022-12-22T09:28:50.790Z,52.00
2022-12-22T09:29:49.068Z,56.00
2022-12-22T09:30:49.054Z,64.00
2022-12-22T09:31:49.155Z,72.00
2022-12-22T09:32:49.043Z,76.00
2022-12-22T09:33:49.055Z,96.00
2022-12-22T09:34:49.037Z,88.00
2022-12-22T09:35:49.036Z,88.00
2022-12-22T09:36:49.049Z,92.00
2022-12-22T09:37:49.065Z,80.00
2022-12-22T09:38:49.042Z,72.00
2022-12-22T09:39:49.016Z,88.00
2022-12-22T09:40:49.012Z,100.00
2022-12-22T09:41:49.009Z,108.00
2022-12-22T09:42:49.026Z,112.00
2022-12-22T09:43:49.004Z,128.00
2022-12-22T09:44:48.995Z,156.00
2022-12-22T09:45:49.073Z,172.00
2022-12-22T09:46:48.986Z,172.00
2022-12-22T09:47:48.984Z,164.00
2022-12-22T09:48:48.979Z,180.00
2022-12-22T09:49:48.973Z,136.00
2022-12-22T09:50:48.972Z,152.00
2022-12-22T09:51:48.988Z,200.00
2022-12-22T09:52:48.963Z,208.00
2022-12-22T09:53:48.960Z,236.00
2022-12-22T09:54:48.959Z,312.00
2022-12-22T09:55:48.953Z,196.00
2022-12-22T09:56:48.957Z,176.00
2022-12-22T09:57:48.953Z,168.00
2022-12-22T09:58:48.960Z,88.00
2022-12-22T09:59:48.937Z,60.00
2022-12-22T10:00:48.974Z,88.00
2022-12-22T10:01:49.012Z,80.00
2022-12-22T10:02:48.934Z,80.00
2022-12-22T10:03:49.017Z,76.00
2022-12-22T10:04:48.912Z,64.00
2022-12-22T10:05:48.910Z,44.00
2022-12-22T10:06:48.904Z,40.00
2022-12-22T10:07:48.920Z,36.00
2022-12-22T10:08:48.894Z,36.00
2022-12-22T10:09:51.285Z,44.00
2022-12-22T10:10:48.893Z,36.00
2022-12-22T10:11:48.886Z,40.00
2022-12-22T10:12:48.879Z,40.00
2022-12-22T10:13:48.887Z,40.00
2022-12-22T10:14:48.894Z,40.00
2022-12-22T10:15:48.878Z,40.00
2022-12-22T10:16:48.939Z,44.00
2022-12-22T10:17:48.862Z,48.00
2022-12-22T10:18:48.857Z,64.00
2022-12-22T10:19:48.853Z,72.00
2022-12-22T10:20:48.847Z,76.00
2022-12-22T10:21:48.844Z,68.00
2022-12-22T10:22:48.849Z,56.00
2022-12-22T10:23:48.836Z,48.00
2022-12-22T10:24:48.834Z,40.00
2022-12-22T10:26:48.822Z,36.00
2022-12-22T10:27:51.565Z,52.00
2022-12-22T10:28:48.820Z,60.00
2022-12-22T10:29:48.835Z,64.00
2022-12-22T10:30:48.831Z,64.00
2022-12-22T10:31:48.867Z,60.00
2022-12-22T10:32:48.808Z,48.00
2022-12-22T10:33:48.804Z,44.00
2022-12-22T10:34:48.793Z,32.00
2022-12-22T10:35:48.795Z,36.00
2022-12-22T10:36:48.782Z,48.00
2022-12-22T10:37:48.782Z,68.00
2022-12-22T10:38:48.777Z,84.00
2022-12-22T10:39:48.776Z,100.00
2022-12-22T10:40:48.776Z,132.00
2022-12-22T10:41:48.798Z,148.00
2022-12-22T10:42:48.757Z,164.00
2022-12-22T10:43:48.755Z,128.00
2022-12-22T10:44:48.782Z,96.00
2022-12-22T10:45:48.796Z,72.00
2022-12-22T10:46:48.760Z,72.00
2022-12-22T10:47:48.738Z,68.00
2022-12-22T10:48:48.743Z,64.00
2022-12-22T10:49:48.738Z,68.00
2022-12-22T10:50:48.731Z,84.00
2022-12-22T10:51:48.723Z,84.00
2022-12-22T10:52:48.724Z,72.00
2022-12-22T10:53:48.725Z,68.00
2022-12-22T10:54:48.710Z,76.00
2022-12-22T10:55:48.705Z,80.00
2022-12-22T10:56:48.701Z,84.00
2022-12-22T10:57:48.709Z,84.00
2022-12-22T10:58:48.695Z,104.00
2022-12-22T10:59:48.688Z,112.00
2022-12-22T11:00:48.684Z,116.00
2022-12-22T11:01:48.864Z,120.00
2022-12-22T11:02:48.895Z,144.00
2022-12-22T11:03:48.713Z,172.00
2022-12-22T11:04:48.672Z,196.00
2022-12-22T11:05:48.667Z,240.00
2022-12-22T11:06:48.669Z,228.00
2022-12-22T11:07:48.686Z,268.00
2022-12-22T11:08:51.508Z,304.00
2022-12-22T11:09:48.671Z,292.00
2022-12-22T11:10:48.648Z,380.00
2022-12-22T11:11:48.650Z,380.00
2022-12-22T11:12:48.635Z,328.00
2022-12-22T11:13:48.634Z,324.00
2022-12-22T11:14:48.628Z,444.00
2022-12-22T11:15:48.625Z,516.00
2022-12-22T11:16:48.655Z,520.00
2022-12-22T11:17:48.623Z,324.00
2022-12-22T11:18:48.659Z,336.00
2022-12-22T11:19:48.616Z,304.00
2022-12-22T11:20:48.603Z,284.00
2022-12-22T11:21:48.612Z,312.00
2022-12-22T11:22:48.598Z,380.00
2022-12-22T11:23:48.597Z,368.00
2022-12-22T11:24:48.590Z,396.00
2022-12-22T11:25:48.587Z,272.00
2022-12-22T11:26:48.586Z,392.00
2022-12-22T11:27:48.585Z,336.00
2022-12-22T11:28:48.584Z,344.00
2022-12-22T11:29:48.572Z,372.00
2022-12-22T11:30:48.602Z,412.00
2022-12-22T11:31:48.768Z,516.00
2022-12-22T11:32:48.568Z,528.00
2022-12-22T11:33:48.554Z,472.00
2022-12-22T11:34:48.573Z,484.00
2022-12-22T11:35:48.546Z,304.00
2022-12-22T11:36:48.565Z,260.00
2022-12-22T11:37:48.567Z,264.00
2022-12-22T11:38:48.537Z,276.00
2022-12-22T11:39:48.543Z,312.00
2022-12-22T11:40:48.541Z,320.00
2022-12-22T11:41:48.534Z,324.00
2022-12-22T11:42:48.515Z,296.00
2022-12-22T11:43:48.520Z,264.00
2022-12-22T11:44:48.512Z,260.00
2022-12-22T11:45:48.522Z,268.00
2022-12-22T11:46:48.589Z,276.00
2022-12-22T11:47:48.498Z,256.00
2022-12-22T11:48:48.503Z,268.00
2022-12-22T11:49:48.489Z,300.00
2022-12-22T11:51:01.518Z,244.00
2022-12-22T11:51:48.481Z,304.00
2022-12-22T11:52:48.531Z,304.00
2022-12-22T11:53:48.480Z,292.00
2022-12-22T11:54:48.474Z,260.00
2022-12-22T11:55:48.470Z,284.00
2022-12-22T11:56:48.480Z,380.00
2022-12-22T11:57:48.474Z,392.00
2022-12-22T11:58:48.481Z,356.00
2022-12-22T11:59:48.457Z,220.00
2022-12-22T12:01:17.529Z,268.00
2022-12-22T12:01:48.540Z,284.00
2022-12-22T12:02:48.515Z,256.00
2022-12-22T12:03:48.497Z,268.00
2022-12-22T12:04:48.440Z,280.00
2022-12-22T12:05:48.437Z,264.00
2022-12-22T12:06:48.455Z,264.00
2022-12-22T12:07:48.437Z,276.00
2022-12-22T12:08:48.426Z,292.00
2022-12-22T12:09:48.417Z,304.00
2022-12-22T12:10:48.409Z,304.00
2022-12-22T12:11:48.407Z,316.00
2022-12-22T12:12:48.413Z,312.00
2022-12-22T12:13:48.401Z,304.00
2022-12-22T12:14:48.405Z,296.00
2022-12-22T12:15:48.518Z,288.00
2022-12-22T12:16:48.389Z,284.00
2022-12-22T12:17:48.389Z,280.00
2022-12-22T12:18:48.379Z,276.00
2022-12-22T12:19:48.379Z,288.00
2022-12-22T12:20:48.388Z,300.00
2022-12-22T12:21:48.367Z,292.00
2022-12-22T12:22:48.392Z,284.00
2022-12-22T12:23:48.362Z,288.00
2022-12-22T12:24:48.379Z,272.00
2022-12-22T12:25:48.357Z,264.00
2022-12-22T12:26:48.367Z,260.00
2022-12-22T12:27:48.346Z,224.00
2022-12-22T12:28:48.353Z,224.00
2022-12-22T12:30:06.246Z,216.00
2022-12-22T12:30:48.333Z,204.00
2022-12-22T12:31:48.677Z,204.00
2022-12-22T12:32:48.337Z,220.00
2022-12-22T12:33:48.320Z,232.00
2022-12-22T12:34:48.321Z,244.00
2022-12-22T12:35:48.320Z,248.00
2022-12-22T12:36:48.313Z,260.00
2022-12-22T12:37:48.307Z,264.00
2022-12-22T12:39:48.298Z,248.00
2022-12-22T12:40:48.297Z,244.00
2022-12-22T12:41:48.305Z,236.00
2022-12-22T12:42:48.295Z,228.00
2022-12-22T12:43:48.283Z,232.00
2022-12-22T12:44:48.284Z,236.00
2022-12-22T12:45:48.275Z,220.00
2022-12-22T12:46:48.346Z,212.00
2022-12-22T12:47:48.266Z,204.00
2022-12-22T12:48:48.273Z,192.00
2022-12-22T12:49:48.260Z,220.00
2022-12-22T12:50:48.257Z,232.00
2022-12-22T12:51:48.261Z,212.00
2022-12-22T12:52:48.249Z,204.00
2022-12-22T12:53:48.260Z,228.00
2022-12-22T12:54:48.263Z,216.00
2022-12-22T12:55:48.238Z,200.00
2022-12-22T12:56:48.233Z,204.00
2022-12-22T12:57:48.238Z,212.00
2022-12-22T12:58:48.227Z,208.00
2022-12-22T12:59:48.232Z,208.00
2022-12-22T13:00:52.491Z,236.00
2022-12-22T13:01:48.424Z,240.00
2022-12-22T13:02:48.373Z,248.00
2022-12-22T13:04:05.329Z,244.00
2022-12-22T13:04:48.284Z,236.00
2022-12-22T13:05:48.206Z,224.00